Fort Dodge, Iowa
Current Conditions -  °F | °C
As of 3:55 AM on Monday 22 Dec 2014 (Local Time) from KFOD Reporting Station
Overcast Overcast  
Wind Chill: 31°   Ceiling: 500
Heat Index: 39°   Visibility: 4mi
Dew Point: 37°   Wind: 14mph
Humidity: 93%   Direction: 170°S
Pressure: 29.64"   Gusts: 18mph
Location:  42.5°N, 94.18°W
Report Text: KFOD 220955Z AUTO 17012G16KT 4SM OVC005 04/03 A2964 RMK AO1
Loading
Personal Weather Stations






























Interactive Weather Map New forecast layout! Learn more

10-Day Weather Forecast

Advertisements
Track Severe Weather on mobile